Lydia Campbell — WDF4887 — position and weather

sailwx.info

Track history (hours):
 
Tides and Currents Weather Stations Pressure Air Temp Water Temp Dewpoint Dewpoint Depression Visibility Wind Speed Wind Dir Waves Ship Positions

Lydia Campbell

Owner: Canal Barge Company, Inc., Belle Chasse, LA. More information available from US FCC via Universal Licensing System and Coast Guard Vessel Documentation Center.

Last reported at 2018-Feb-16 11:11 UTC. Time now 2018-Feb-20 00:18 UTC.
Position N 39°16' W 090°37'.

Length 33 m.

Type: Fishing. MMSI: 367456890.

Date/timePositionNaut miles runAvg speedWind from/ knotsBaromVisibWave heightAir tempDewpointWater temp
2018-Feb-16 11:11N 39°16' W 090°37'3 3.4
2018-Feb-16 10:12N 39°13' W 090°36'1 3.5
2018-Feb-16 10:00N 39°12' W 090°35'2 3.6
2018-Feb-16 09:25N 39°10' W 090°37'2 3.9
2018-Feb-16 09:00N 39°08' W 090°37'2 3.7
2018-Feb-16 08:30N 39°07' W 090°36'2 3.8
2018-Feb-16 08:00N 39°05' W 090°35'2 3.1
2018-Feb-16 07:30N 39°03' W 090°35'2 3.4
2018-Feb-16 07:00N 39°02' W 090°34'2 3.7
2018-Feb-16 06:30N 38°60' W 090°34'2 3.7
2018-Feb-16 06:00N 38°58' W 090°33'2 3.4
2018-Feb-16 05:30N 38°57' W 090°31'2 3.5
2018-Feb-16 05:00N 38°58' W 090°29'2 3.7
2018-Feb-16 04:30N 38°58' W 090°27'2 4.4
2018-Feb-16 04:00N 38°58' W 090°24'3 5.2
2018-Feb-16 03:30N 38°57' W 090°21'3 5.1
2018-Feb-16 03:00N 38°55' W 090°18'3 5.3
2018-Feb-16 02:30N 38°55' W 090°15'2 5.0
2018-Feb-16 02:00N 38°54' W 090°12'3 1.6
2018-Feb-15 23:57N 38°52' W 090°09'0 0.3
2018-Feb-15 23:12N 38°52' W 090°09'0 2.2
2018-Feb-15 23:00N 38°52' W 090°08'1 0.8
2018-Feb-15 22:20N 38°51' W 090°08'0 0.0
2018-Feb-15 21:59N 38°51' W 090°08'0 0.0
2018-Feb-15 21:23N 38°51' W 090°08'0 0.0
2018-Feb-15 20:59N 38°51' W 090°08'0 0.0
2018-Feb-15 20:29N 38°51' W 090°08'1 3.1
2018-Feb-15 20:00N 38°50' W 090°06'3 2.9
2018-Feb-15 18:50N 38°47' W 090°08'1 3.1
2018-Feb-15 18:30N 38°46' W 090°08'2 3.6
2018-Feb-15 18:01N 38°45' W 090°09'2 3.1
2018-Feb-15 17:25N 38°43' W 090°10'2 1.5
2018-Feb-15 16:12N 38°41' W 090°11'1 3.2
2018-Feb-15 16:00N 38°41' W 090°11'3 4.5
2018-Feb-15 15:23N 38°38' W 090°11'2 0.0
2018-Feb-13 23:46N 38°36' W 090°11'2 4.9
2018-Feb-13 23:26N 38°38' W 090°11'3 6.3
2018-Feb-13 23:00N 38°40' W 090°11'2 1.8
2018-Feb-13 21:51N 38°42' W 090°11'1 2.3
2018-Feb-13 21:25N 38°43' W 090°10'1 2.5
2018-Feb-13 21:00N 38°44' W 090°09'2 3.2
2018-Feb-13 20:22N 38°46' W 090°08'1 3.1
2018-Feb-13 19:55N 38°47' W 090°07'2 6.1
2018-Feb-13 19:30N 38°50' W 090°07'2 3.8
2018-Feb-13 19:00N 38°51' W 090°08'1 1.8
2018-Feb-13 18:22N 38°52' W 090°09'0 0.4
2018-Feb-13 17:58N 38°52' W 090°09'0 0.2
2018-Feb-13 17:28N 38°52' W 090°09'0 0.0
2018-Feb-13 16:58N 38°52' W 090°09'0 0.1
2018-Feb-13 16:30N 38°52' W 090°09'1 1.9
2018-Feb-13 16:01N 38°53' W 090°10'2 3.7
2018-Feb-13 15:31N 38°54' W 090°12'2 3.0
2018-Feb-13 14:58N 38°55' W 090°14'0 0.3
2018-Feb-13 14:29N 38°55' W 090°13'0 0.0
2018-Feb-13 13:58N 38°55' W 090°13'0 0.0
2018-Feb-13 13:28N 38°55' W 090°13'0 0.0
2018-Feb-13 12:59N 38°55' W 090°13'0 0.0
2018-Feb-13 12:29N 38°55' W 090°13'0 0.0
2018-Feb-13 11:59N 38°55' W 090°13'0 0.0
2018-Feb-13 11:29N 38°55' W 090°13'0 0.0
2018-Feb-13 10:58N 38°55' W 090°13'0 0.0
2018-Feb-13 10:28N 38°55' W 090°13'0 0.0
2018-Feb-13 09:58N 38°55' W 090°13'0 0.0
2018-Feb-13 09:28N 38°55' W 090°13'0 0.0
2018-Feb-13 08:58N 38°55' W 090°13'0 0.0
2018-Feb-13 08:28N 38°55' W 090°13'0 0.0
2018-Feb-13 07:58N 38°55' W 090°13'0 0.0
2018-Feb-13 07:28N 38°55' W 090°13'0 0.0
2018-Feb-13 06:58N 38°55' W 090°14'1 1.4
2018-Feb-13 06:30N 38°55' W 090°14'2 3.2
2018-Feb-13 06:00N 38°55' W 090°16'2 3.3
2018-Feb-13 05:30N 38°55' W 090°18'2 3.4
2018-Feb-13 05:00N 38°56' W 090°20'2 4.5
2018-Feb-13 04:30N 38°57' W 090°23'2 4.2
2018-Feb-13 04:01N 38°58' W 090°25'2 3.5
2018-Feb-13 03:30N 38°58' W 090°28'2 3.2
2018-Feb-13 03:00N 38°58' W 090°30'1 2.8
2018-Feb-13 02:30N 38°57' W 090°31'2 3.1
2018-Feb-13 02:00N 38°58' W 090°33'2 3.4
2018-Feb-13 01:30N 38°60' W 090°34'2 3.4
2018-Feb-13 01:00N 39°01' W 090°34'2 3.1
2018-Feb-13 00:30N 39°03' W 090°35'2 3.2
2018-Feb-13 00:00N 39°04' W 090°35'3 4.1
2018-Feb-12 23:12N 39°07' W 090°36'3 3.3
2018-Feb-12 22:19N 39°10' W 090°37'  
Track history (hours):
 
Tides and Currents Weather Stations Pressure Air Temp Water Temp Dewpoint Dewpoint Depression Visibility Wind Speed Wind Dir Waves Ship Positions

Lydia Campbell

Owner: Canal Barge Company, Inc., Belle Chasse, LA. More information available from US FCC via Universal Licensing System and Coast Guard Vessel Documentation Center.

Last reported at 2018-Feb-16 11:11 UTC. Time now 2018-Feb-20 00:18 UTC.
Position N 39°16' W 090°37'.

Length 33 m.

Type: Fishing. MMSI: 367456890.

Date/timePositionNaut miles runAvg speedWind from/ knotsBaromVisibWave heightAir tempDewpointWater temp
2018-Feb-16 11:11N 39°16' W 090°37'3 3.4
2018-Feb-16 10:12N 39°13' W 090°36'1 3.5
2018-Feb-16 10:00N 39°12' W 090°35'2 3.6
2018-Feb-16 09:25N 39°10' W 090°37'2 3.9
2018-Feb-16 09:00N 39°08' W 090°37'2 3.7
2018-Feb-16 08:30N 39°07' W 090°36'2 3.8
2018-Feb-16 08:00N 39°05' W 090°35'2 3.1
2018-Feb-16 07:30N 39°03' W 090°35'2 3.4
2018-Feb-16 07:00N 39°02' W 090°34'2 3.7
2018-Feb-16 06:30N 38°60' W 090°34'2 3.7
2018-Feb-16 06:00N 38°58' W 090°33'2 3.4
2018-Feb-16 05:30N 38°57' W 090°31'2 3.5
2018-Feb-16 05:00N 38°58' W 090°29'2 3.7
2018-Feb-16 04:30N 38°58' W 090°27'2 4.4
2018-Feb-16 04:00N 38°58' W 090°24'3 5.2
2018-Feb-16 03:30N 38°57' W 090°21'3 5.1
2018-Feb-16 03:00N 38°55' W 090°18'3 5.3
2018-Feb-16 02:30N 38°55' W 090°15'2 5.0
2018-Feb-16 02:00N 38°54' W 090°12'3 1.6
2018-Feb-15 23:57N 38°52' W 090°09'0 0.3
2018-Feb-15 23:12N 38°52' W 090°09'0 2.2
2018-Feb-15 23:00N 38°52' W 090°08'1 0.8
2018-Feb-15 22:20N 38°51' W 090°08'0 0.0
2018-Feb-15 21:59N 38°51' W 090°08'0 0.0
2018-Feb-15 21:23N 38°51' W 090°08'0 0.0
2018-Feb-15 20:59N 38°51' W 090°08'0 0.0
2018-Feb-15 20:29N 38°51' W 090°08'1 3.1
2018-Feb-15 20:00N 38°50' W 090°06'3 2.9
2018-Feb-15 18:50N 38°47' W 090°08'1 3.1
2018-Feb-15 18:30N 38°46' W 090°08'2 3.6
2018-Feb-15 18:01N 38°45' W 090°09'2 3.1
2018-Feb-15 17:25N 38°43' W 090°10'2 1.5
2018-Feb-15 16:12N 38°41' W 090°11'1 3.2
2018-Feb-15 16:00N 38°41' W 090°11'3 4.5
2018-Feb-15 15:23N 38°38' W 090°11'2 0.0
2018-Feb-13 23:46N 38°36' W 090°11'2 4.9
2018-Feb-13 23:26N 38°38' W 090°11'3 6.3
2018-Feb-13 23:00N 38°40' W 090°11'2 1.8
2018-Feb-13 21:51N 38°42' W 090°11'1 2.3
2018-Feb-13 21:25N 38°43' W 090°10'1 2.5
2018-Feb-13 21:00N 38°44' W 090°09'2 3.2
2018-Feb-13 20:22N 38°46' W 090°08'1 3.1
2018-Feb-13 19:55N 38°47' W 090°07'2 6.1
2018-Feb-13 19:30N 38°50' W 090°07'2 3.8
2018-Feb-13 19:00N 38°51' W 090°08'1 1.8
2018-Feb-13 18:22N 38°52' W 090°09'0 0.4
2018-Feb-13 17:58N 38°52' W 090°09'0 0.2
2018-Feb-13 17:28N 38°52' W 090°09'0 0.0
2018-Feb-13 16:58N 38°52' W 090°09'0 0.1
2018-Feb-13 16:30N 38°52' W 090°09'1 1.9
2018-Feb-13 16:01N 38°53' W 090°10'2 3.7
2018-Feb-13 15:31N 38°54' W 090°12'2 3.0
2018-Feb-13 14:58N 38°55' W 090°14'0 0.3
2018-Feb-13 14:29N 38°55' W 090°13'0 0.0
2018-Feb-13 13:58N 38°55' W 090°13'0 0.0
2018-Feb-13 13:28N 38°55' W 090°13'0 0.0
2018-Feb-13 12:59N 38°55' W 090°13'0 0.0
2018-Feb-13 12:29N 38°55' W 090°13'0 0.0
2018-Feb-13 11:59N 38°55' W 090°13'0 0.0
2018-Feb-13 11:29N 38°55' W 090°13'0 0.0
2018-Feb-13 10:58N 38°55' W 090°13'0 0.0
2018-Feb-13 10:28N 38°55' W 090°13'0 0.0
2018-Feb-13 09:58N 38°55' W 090°13'0 0.0
2018-Feb-13 09:28N 38°55' W 090°13'0 0.0
2018-Feb-13 08:58N 38°55' W 090°13'0 0.0
2018-Feb-13 08:28N 38°55' W 090°13'0 0.0
2018-Feb-13 07:58N 38°55' W 090°13'0 0.0
2018-Feb-13 07:28N 38°55' W 090°13'0 0.0
2018-Feb-13 06:58N 38°55' W 090°14'1 1.4
2018-Feb-13 06:30N 38°55' W 090°14'2 3.2
2018-Feb-13 06:00N 38°55' W 090°16'2 3.3
2018-Feb-13 05:30N 38°55' W 090°18'2 3.4
2018-Feb-13 05:00N 38°56' W 090°20'2 4.5
2018-Feb-13 04:30N 38°57' W 090°23'2 4.2
2018-Feb-13 04:01N 38°58' W 090°25'2 3.5
2018-Feb-13 03:30N 38°58' W 090°28'2 3.2
2018-Feb-13 03:00N 38°58' W 090°30'1 2.8
2018-Feb-13 02:30N 38°57' W 090°31'2 3.1
2018-Feb-13 02:00N 38°58' W 090°33'2 3.4
2018-Feb-13 01:30N 38°60' W 090°34'2 3.4
2018-Feb-13 01:00N 39°01' W 090°34'2 3.1
2018-Feb-13 00:30N 39°03' W 090°35'2 3.2
2018-Feb-13 00:00N 39°04' W 090°35'3 4.1
2018-Feb-12 23:12N 39°07' W 090°36'3 3.3
2018-Feb-12 22:19N 39°10' W 090°37'  

Dump ship's entire track history